LIME/BGY METAR and TAF weather

Enter ICAO airport designator
Station Type Date Time Source
LIME METAR 2020/12/06 01:50 UTC NOAA

LIME 060150Z 18003KT 120V220 0400 R28/0900N FG VV002 04/04 Q0999 NOSIG


Station Type Date Time Source
LIME Decoded METAR 2020/12/06 01:50 UTC NOAA

Bergamo / Orio Al Serio, Italy (LIME) 45-40N 009-42E 237M
Dec 05, 2020 - 08:50 PM EST / 2020.12.06 0150 UTC
Wind: from the S (180 degrees) at 3 MPH (3 KT) (direction variable):0
Visibility: less than 1 mile:0
Sky conditions: obscured
Weather: fog
Temperature: 39 F (4 C)
Dew Point: 39 F (4 C)
Relative Humidity: 100%
Pressure (altimeter): 29.50 in. Hg (0999 hPa)
ob: LIME 060150Z 18003KT 120V220 0400 R28/0900N FG VV002 04/04 Q0999 NOSIG
cycle: 2

Station Type Date Time Source
LIME TAF 2020/12/05 18:21 UTC NOAA

TAF LIME 051700Z 0518/0618 VRB05KT 7000 BKN030
TEMPO 0518/0606 3000 RA

Example: see airport list